Antananarivo, Madagascar
Current Conditions -  °F | °C
As of 6:30 PM on Tuesday 21 Oct 2014 (Local Time) from FMMI Reporting Station
Scattered Clouds Scattered Clouds  
Wind Chill: 25°   Ceiling: Unl
Heat Index: 26°   Visibility: 6mi
Dew Point: 13°   Wind: 9mph
Humidity: 47%   Direction: 290°WNW
Pressure: 30.09"   Gusts: NA
Location:  18.89°S, 47.51°E
Report Text: FMMI 211530Z 29008KT 9999 SCT023CB 25/13 Q1019 NOSIG
Loading
Personal Weather Stations






























Interactive Weather Map New forecast layout! Learn more

10-Day Weather Forecast

Advertisements
Track Severe Weather on mobile